sensor_id;sensor_type;location;lat;lon;timestamp;temperature;humidity
37456;DHT22;23316;50.718;7.328;2023-04-25T00:01:21;11.60;52.00
37456;DHT22;23316;50.718;7.328;2023-04-25T00:03:48;11.60;52.10
37456;DHT22;23316;50.718;7.328;2023-04-25T00:06:17;11.50;52.00
37456;DHT22;23316;50.718;7.328;2023-04-25T00:08:44;11.50;52.10
37456;DHT22;23316;50.718;7.328;2023-04-25T00:11:11;11.60;52.20
37456;DHT22;23316;50.718;7.328;2023-04-25T00:13:39;11.50;52.10
37456;DHT22;23316;50.718;7.328;2023-04-25T00:16:07;11.50;52.10
37456;DHT22;23316;50.718;7.328;2023-04-25T00:18:34;11.60;52.10
37456;DHT22;23316;50.718;7.328;2023-04-25T00:21:02;11.60;52.10
37456;DHT22;23316;50.718;7.328;2023-04-25T00:23:33;11.60;52.10
37456;DHT22;23316;50.718;7.328;2023-04-25T00:26:02;11.60;52.10
37456;DHT22;23316;50.718;7.328;2023-04-25T00:28:29;11.50;52.00
37456;DHT22;23316;50.718;7.328;2023-04-25T00:30:56;11.50;51.90
37456;DHT22;23316;50.718;7.328;2023-04-25T00:33:23;11.50;52.00
37456;DHT22;23316;50.718;7.328;2023-04-25T00:35:51;11.50;52.00
37456;DHT22;23316;50.718;7.328;2023-04-25T00:38:18;11.40;51.90
37456;DHT22;23316;50.718;7.328;2023-04-25T00:40:47;11.40;51.90
37456;DHT22;23316;50.718;7.328;2023-04-25T00:43:14;11.40;51.90
37456;DHT22;23316;50.718;7.328;2023-04-25T00:45:43;11.40;52.00
37456;DHT22;23316;50.718;7.328;2023-04-25T00:48:10;11.40;52.00
37456;DHT22;23316;50.718;7.328;2023-04-25T00:50:38;11.40;52.00
37456;DHT22;23316;50.718;7.328;2023-04-25T00:53:05;11.30;51.90
37456;DHT22;23316;50.718;7.328;2023-04-25T00:55:33;11.30;51.90
37456;DHT22;23316;50.718;7.328;2023-04-25T00:58:03;11.30;51.90
37456;DHT22;23316;50.718;7.328;2023-04-25T01:00:30;11.30;52.00
37456;DHT22;23316;50.718;7.328;2023-04-25T01:02:58;11.30;52.00
37456;DHT22;23316;50.718;7.328;2023-04-25T01:59:59;10.60;52.70
37456;DHT22;23316;50.718;7.328;2023-04-25T02:02:27;10.50;52.70
37456;DHT22;23316;50.718;7.328;2023-04-25T02:04:54;10.50;52.70
37456;DHT22;23316;50.718;7.328;2023-04-25T02:07:22;10.40;52.80
37456;DHT22;23316;50.718;7.328;2023-04-25T02:09:49;10.40;52.90
37456;DHT22;23316;50.718;7.328;2023-04-25T02:12:16;10.40;52.90
37456;DHT22;23316;50.718;7.328;2023-04-25T02:14:43;10.40;53.00
37456;DHT22;23316;50.718;7.328;2023-04-25T02:17:12;10.40;53.00
37456;DHT22;23316;50.718;7.328;2023-04-25T02:19:39;10.30;53.10
37456;DHT22;23316;50.718;7.328;2023-04-25T02:22:06;10.30;53.20
37456;DHT22;23316;50.718;7.328;2023-04-25T02:24:34;10.30;53.30
37456;DHT22;23316;50.718;7.328;2023-04-25T02:27:03;10.30;53.50
37456;DHT22;23316;50.718;7.328;2023-04-25T02:29:30;10.20;53.50
37456;DHT22;23316;50.718;7.328;2023-04-25T02:31:58;10.20;53.80
37456;DHT22;23316;50.718;7.328;2023-04-25T02:34:27;10.20;53.90
37456;DHT22;23316;50.718;7.328;2023-04-25T02:36:54;10.20;54.10
37456;DHT22;23316;50.718;7.328;2023-04-25T02:39:22;10.10;54.30
37456;DHT22;23316;50.718;7.328;2023-04-25T02:41:51;10.00;54.40
37456;DHT22;23316;50.718;7.328;2023-04-25T02:44:18;10.00;54.50
37456;DHT22;23316;50.718;7.328;2023-04-25T02:46:46;10.00;54.80
37456;DHT22;23316;50.718;7.328;2023-04-25T02:49:13;10.00;55.40
37456;DHT22;23316;50.718;7.328;2023-04-25T02:51:41;9.90;55.00
37456;DHT22;23316;50.718;7.328;2023-04-25T02:54:09;9.90;55.10
37456;DHT22;23316;50.718;7.328;2023-04-25T02:56:36;9.90;55.10
37456;DHT22;23316;50.718;7.328;2023-04-25T02:59:03;9.90;55.20
37456;DHT22;23316;50.718;7.328;2023-04-25T03:01:31;9.80;55.30
37456;DHT22;23316;50.718;7.328;2023-04-25T03:03:58;9.90;55.40
37456;DHT22;23316;50.718;7.328;2023-04-25T03:06:25;9.80;55.40
37456;DHT22;23316;50.718;7.328;2023-04-25T03:08:54;9.80;55.40
37456;DHT22;23316;50.718;7.328;2023-04-25T03:11:21;9.80;55.40
37456;DHT22;23316;50.718;7.328;2023-04-25T03:13:49;9.90;55.50
37456;DHT22;23316;50.718;7.328;2023-04-25T03:16:16;9.80;55.40
37456;DHT22;23316;50.718;7.328;2023-04-25T03:18:43;9.80;55.40
37456;DHT22;23316;50.718;7.328;2023-04-25T03:21:10;9.80;55.40
37456;DHT22;23316;50.718;7.328;2023-04-25T03:23:38;9.80;55.50
37456;DHT22;23316;50.718;7.328;2023-04-25T03:26:06;9.90;55.40
37456;DHT22;23316;50.718;7.328;2023-04-25T03:28:33;9.90;55.40
37456;DHT22;23316;50.718;7.328;2023-04-25T03:31:01;9.90;55.40
37456;DHT22;23316;50.718;7.328;2023-04-25T03:33:28;9.90;55.40
37456;DHT22;23316;50.718;7.328;2023-04-25T03:35:55;9.90;55.30
37456;DHT22;23316;50.718;7.328;2023-04-25T03:38:22;10.00;55.30
37456;DHT22;23316;50.718;7.328;2023-04-25T03:40:50;10.00;55.20
37456;DHT22;23316;50.718;7.328;2023-04-25T03:43:19;10.00;55.10
37456;DHT22;23316;50.718;7.328;2023-04-25T03:45:46;10.00;55.00
37456;DHT22;23316;50.718;7.328;2023-04-25T03:48:13;10.00;54.90
37456;DHT22;23316;50.718;7.328;2023-04-25T03:50:40;10.10;54.90
37456;DHT22;23316;50.718;7.328;2023-04-25T03:53:08;10.00;54.70
37456;DHT22;23316;50.718;7.328;2023-04-25T03:55:35;10.10;54.70
37456;DHT22;23316;50.718;7.328;2023-04-25T03:58:05;10.10;54.70
37456;DHT22;23316;50.718;7.328;2023-04-25T04:00:35;10.10;54.70
37456;DHT22;23316;50.718;7.328;2023-04-25T04:03:03;10.10;54.60
37456;DHT22;23316;50.718;7.328;2023-04-25T04:05:30;10.10;54.60
37456;DHT22;23316;50.718;7.328;2023-04-25T04:07:58;10.10;54.60
37456;DHT22;23316;50.718;7.328;2023-04-25T04:10:25;10.00;54.60
37456;DHT22;23316;50.718;7.328;2023-04-25T04:12:53;10.10;54.70
37456;DHT22;23316;50.718;7.328;2023-04-25T04:15:20;10.10;54.70
37456;DHT22;23316;50.718;7.328;2023-04-25T04:17:49;10.00;54.70
37456;DHT22;23316;50.718;7.328;2023-04-25T04:20:16;10.00;54.70
37456;DHT22;23316;50.718;7.328;2023-04-25T04:22:44;10.10;54.80
37456;DHT22;23316;50.718;7.328;2023-04-25T04:25:11;10.10;54.80
37456;DHT22;23316;50.718;7.328;2023-04-25T04:27:38;10.10;54.80
37456;DHT22;23316;50.718;7.328;2023-04-25T04:30:07;10.10;54.90
37456;DHT22;23316;50.718;7.328;2023-04-25T04:32:34;10.10;54.90
37456;DHT22;23316;50.718;7.328;2023-04-25T04:35:04;10.10;54.90
37456;DHT22;23316;50.718;7.328;2023-04-25T04:37:32;10.10;54.90
37456;DHT22;23316;50.718;7.328;2023-04-25T04:40:00;10.10;55.30
37456;DHT22;23316;50.718;7.328;2023-04-25T04:42:31;10.10;54.90
37456;DHT22;23316;50.718;7.328;2023-04-25T04:44:59;10.10;54.90
37456;DHT22;23316;50.718;7.328;2023-04-25T04:47:27;10.10;54.90
37456;DHT22;23316;50.718;7.328;2023-04-25T04:49:56;10.20;55.00
37456;DHT22;23316;50.718;7.328;2023-04-25T04:52:25;10.20;55.00
37456;DHT22;23316;50.718;7.328;2023-04-25T04:54:52;10.20;55.00
37456;DHT22;23316;50.718;7.328;2023-04-25T04:57:19;10.20;55.00
37456;DHT22;23316;50.718;7.328;2023-04-25T04:59:47;10.20;55.10
37456;DHT22;23316;50.718;7.328;2023-04-25T05:02:14;10.10;55.00
37456;DHT22;23316;50.718;7.328;2023-04-25T05:04:41;10.20;55.10
37456;DHT22;23316;50.718;7.328;2023-04-25T05:07:08;10.20;55.00
37456;DHT22;23316;50.718;7.328;2023-04-25T05:09:37;10.20;55.00
37456;DHT22;23316;50.718;7.328;2023-04-25T05:12:05;10.20;55.10
37456;DHT22;23316;50.718;7.328;2023-04-25T05:14:32;10.20;55.10
37456;DHT22;23316;50.718;7.328;2023-04-25T05:16:59;10.20;55.20
37456;DHT22;23316;50.718;7.328;2023-04-25T05:19:27;10.20;55.10
37456;DHT22;23316;50.718;7.328;2023-04-25T05:21:54;10.20;55.20
37456;DHT22;23316;50.718;7.328;2023-04-25T05:24:21;10.20;55.20
37456;DHT22;23316;50.718;7.328;2023-04-25T05:26:52;10.20;55.30
37456;DHT22;23316;50.718;7.328;2023-04-25T05:29:20;10.20;55.40
37456;DHT22;23316;50.718;7.328;2023-04-25T05:31:47;10.20;55.30
37456;DHT22;23316;50.718;7.328;2023-04-25T05:34:14;10.20;55.40
37456;DHT22;23316;50.718;7.328;2023-04-25T05:36:42;10.20;55.50
37456;DHT22;23316;50.718;7.328;2023-04-25T05:39:09;10.20;55.60
37456;DHT22;23316;50.718;7.328;2023-04-25T05:41:37;10.20;55.70
37456;DHT22;23316;50.718;7.328;2023-04-25T05:44:05;10.10;55.70
37456;DHT22;23316;50.718;7.328;2023-04-25T05:46:33;10.20;55.80
37456;DHT22;23316;50.718;7.328;2023-04-25T05:49:00;10.20;55.90
37456;DHT22;23316;50.718;7.328;2023-04-25T05:51:27;10.20;56.00
37456;DHT22;23316;50.718;7.328;2023-04-25T05:53:55;10.20;56.20
37456;DHT22;23316;50.718;7.328;2023-04-25T05:56:22;10.20;56.20
37456;DHT22;23316;50.718;7.328;2023-04-25T05:58:49;10.20;56.20
37456;DHT22;23316;50.718;7.328;2023-04-25T06:01:18;10.20;56.30
37456;DHT22;23316;50.718;7.328;2023-04-25T06:03:45;10.20;56.50
37456;DHT22;23316;50.718;7.328;2023-04-25T06:06:13;10.30;56.50
37456;DHT22;23316;50.718;7.328;2023-04-25T06:08:40;10.30;56.60
37456;DHT22;23316;50.718;7.328;2023-04-25T06:11:07;10.20;56.70
37456;DHT22;23316;50.718;7.328;2023-04-25T06:13:34;10.30;56.80
37456;DHT22;23316;50.718;7.328;2023-04-25T06:16:02;10.30;56.90
37456;DHT22;23316;50.718;7.328;2023-04-25T06:18:31;10.30;56.80
37456;DHT22;23316;50.718;7.328;2023-04-25T06:20:58;10.20;56.80
37456;DHT22;23316;50.718;7.328;2023-04-25T06:23:25;10.30;56.80
37456;DHT22;23316;50.718;7.328;2023-04-25T06:25:52;10.30;56.90
37456;DHT22;23316;50.718;7.328;2023-04-25T06:28:20;10.20;56.90
37456;DHT22;23316;50.718;7.328;2023-04-25T06:30:49;10.30;57.00
37456;DHT22;23316;50.718;7.328;2023-04-25T06:33:16;10.30;57.00
37456;DHT22;23316;50.718;7.328;2023-04-25T06:35:45;10.30;56.90
37456;DHT22;23316;50.718;7.328;2023-04-25T06:38:12;10.30;56.80
37456;DHT22;23316;50.718;7.328;2023-04-25T06:40:39;10.30;56.80
37456;DHT22;23316;50.718;7.328;2023-04-25T06:43:07;10.30;56.70
37456;DHT22;23316;50.718;7.328;2023-04-25T06:45:34;10.30;56.70
37456;DHT22;23316;50.718;7.328;2023-04-25T06:48:01;10.30;56.70
37456;DHT22;23316;50.718;7.328;2023-04-25T06:50:28;10.20;56.70
37456;DHT22;23316;50.718;7.328;2023-04-25T06:52:57;10.30;56.90
37456;DHT22;23316;50.718;7.328;2023-04-25T06:55:24;10.30;57.00
37456;DHT22;23316;50.718;7.328;2023-04-25T06:57:52;10.30;56.70
37456;DHT22;23316;50.718;7.328;2023-04-25T07:00:20;10.30;56.60
37456;DHT22;23316;50.718;7.328;2023-04-25T07:02:47;10.30;56.70
37456;DHT22;23316;50.718;7.328;2023-04-25T07:05:14;10.20;56.00
37456;DHT22;23316;50.718;7.328;2023-04-25T07:07:42;10.20;55.60
37456;DHT22;23316;50.718;7.328;2023-04-25T07:10:10;10.20;55.60
37456;DHT22;23316;50.718;7.328;2023-04-25T07:12:38;10.20;55.60
37456;DHT22;23316;50.718;7.328;2023-04-25T07:15:06;10.20;55.90
37456;DHT22;23316;50.718;7.328;2023-04-25T07:17:35;10.20;55.90
37456;DHT22;23316;50.718;7.328;2023-04-25T07:20:04;10.20;55.90
37456;DHT22;23316;50.718;7.328;2023-04-25T07:22:33;10.20;55.30
37456;DHT22;23316;50.718;7.328;2023-04-25T07:25:00;10.30;55.40
37456;DHT22;23316;50.718;7.328;2023-04-25T07:27:30;10.20;55.20
37456;DHT22;23316;50.718;7.328;2023-04-25T07:29:57;10.30;55.40
37456;DHT22;23316;50.718;7.328;2023-04-25T07:32:25;10.30;55.10
37456;DHT22;23316;50.718;7.328;2023-04-25T07:34:52;10.30;55.30
37456;DHT22;23316;50.718;7.328;2023-04-25T07:37:20;10.40;55.00
37456;DHT22;23316;50.718;7.328;2023-04-25T07:39:47;10.40;55.00
37456;DHT22;23316;50.718;7.328;2023-04-25T07:42:14;10.40;54.40
37456;DHT22;23316;50.718;7.328;2023-04-25T07:44:43;10.50;53.80
37456;DHT22;23316;50.718;7.328;2023-04-25T07:47:10;10.50;54.20
37456;DHT22;23316;50.718;7.328;2023-04-25T07:49:37;10.60;54.80
37456;DHT22;23316;50.718;7.328;2023-04-25T07:52:05;10.60;54.70
37456;DHT22;23316;50.718;7.328;2023-04-25T07:54:33;10.70;54.20
37456;DHT22;23316;50.718;7.328;2023-04-25T07:57:00;10.80;53.70
37456;DHT22;23316;50.718;7.328;2023-04-25T07:59:28;10.80;53.00
37456;DHT22;23316;50.718;7.328;2023-04-25T08:01:57;10.80;53.00
37456;DHT22;23316;50.718;7.328;2023-04-25T08:04:31;10.90;52.90
37456;DHT22;23316;50.718;7.328;2023-04-25T08:07:13;10.90;52.30
37456;DHT22;23316;50.718;7.328;2023-04-25T08:09:42;10.90;52.10
37456;DHT22;23316;50.718;7.328;2023-04-25T08:12:11;10.90;52.60
37456;DHT22;23316;50.718;7.328;2023-04-25T08:14:41;10.90;52.80
37456;DHT22;23316;50.718;7.328;2023-04-25T08:17:14;10.90;52.80
37456;DHT22;23316;50.718;7.328;2023-04-25T08:19:42;11.00;52.70
37456;DHT22;23316;50.718;7.328;2023-04-25T08:22:12;11.00;52.70
37456;DHT22;23316;50.718;7.328;2023-04-25T08:24:41;11.00;52.70
37456;DHT22;23316;50.718;7.328;2023-04-25T08:27:08;11.00;52.60
37456;DHT22;23316;50.718;7.328;2023-04-25T08:29:35;11.00;52.70
37456;DHT22;23316;50.718;7.328;2023-04-25T08:32:03;11.10;52.60
37456;DHT22;23316;50.718;7.328;2023-04-25T08:34:31;11.10;52.50
37456;DHT22;23316;50.718;7.328;2023-04-25T08:36:59;11.10;52.00
37456;DHT22;23316;50.718;7.328;2023-04-25T08:39:26;11.10;52.00
37456;DHT22;23316;50.718;7.328;2023-04-25T08:41:53;11.20;52.30
37456;DHT22;23316;50.718;7.328;2023-04-25T08:44:21;11.20;51.80
37456;DHT22;23316;50.718;7.328;2023-04-25T08:46:49;11.20;52.10
37456;DHT22;23316;50.718;7.328;2023-04-25T08:49:17;11.20;52.10
37456;DHT22;23316;50.718;7.328;2023-04-25T08:51:46;11.20;51.90
37456;DHT22;23316;50.718;7.328;2023-04-25T08:54:15;11.20;50.80
37456;DHT22;23316;50.718;7.328;2023-04-25T08:56:44;11.10;49.20
37456;DHT22;23316;50.718;7.328;2023-04-25T08:59:12;11.10;48.80
37456;DHT22;23316;50.718;7.328;2023-04-25T09:01:40;11.00;48.90
37456;DHT22;23316;50.718;7.328;2023-04-25T09:04:11;11.00;48.80
37456;DHT22;23316;50.718;7.328;2023-04-25T09:06:38;11.10;48.60
37456;DHT22;23316;50.718;7.328;2023-04-25T09:09:08;11.10;49.10
37456;DHT22;23316;50.718;7.328;2023-04-25T09:11:37;11.10;49.20
37456;DHT22;23316;50.718;7.328;2023-04-25T09:14:14;11.20;48.40
37456;DHT22;23316;50.718;7.328;2023-04-25T09:16:57;11.20;48.30
37456;DHT22;23316;50.718;7.328;2023-04-25T09:19:26;11.20;47.90
37456;DHT22;23316;50.718;7.328;2023-04-25T09:21:54;11.30;48.30
37456;DHT22;23316;50.718;7.328;2023-04-25T09:24:33;11.30;48.80
37456;DHT22;23316;50.718;7.328;2023-04-25T09:27:03;11.30;49.20
37456;DHT22;23316;50.718;7.328;2023-04-25T09:29:31;11.40;48.90
37456;DHT22;23316;50.718;7.328;2023-04-25T09:32:13;11.40;48.80
37456;DHT22;23316;50.718;7.328;2023-04-25T09:34:42;11.30;48.70
37456;DHT22;23316;50.718;7.328;2023-04-25T09:37:10;11.40;48.40
37456;DHT22;23316;50.718;7.328;2023-04-25T09:39:39;11.30;48.10
37456;DHT22;23316;50.718;7.328;2023-04-25T09:42:07;11.30;48.40
37456;DHT22;23316;50.718;7.328;2023-04-25T09:44:36;11.20;48.20
37456;DHT22;23316;50.718;7.328;2023-04-25T09:47:03;11.20;48.00
37456;DHT22;23316;50.718;7.328;2023-04-25T09:49:32;11.20;47.70
37456;DHT22;23316;50.718;7.328;2023-04-25T09:51:59;11.20;47.70
37456;DHT22;23316;50.718;7.328;2023-04-25T09:54:26;11.10;47.80
37456;DHT22;23316;50.718;7.328;2023-04-25T09:56:55;11.10;47.60
37456;DHT22;23316;50.718;7.328;2023-04-25T09:59:23;11.10;47.90
37456;DHT22;23316;50.718;7.328;2023-04-25T10:01:52;11.10;48.00
37456;DHT22;23316;50.718;7.328;2023-04-25T10:04:25;11.10;47.40
37456;DHT22;23316;50.718;7.328;2023-04-25T10:06:53;11.10;47.30
37456;DHT22;23316;50.718;7.328;2023-04-25T10:09:25;11.10;47.00
37456;DHT22;23316;50.718;7.328;2023-04-25T10:11:56;11.00;46.70
37456;DHT22;23316;50.718;7.328;2023-04-25T10:14:24;11.00;46.40
37456;DHT22;23316;50.718;7.328;2023-04-25T10:16:52;11.00;47.20
37456;DHT22;23316;50.718;7.328;2023-04-25T10:19:22;11.00;47.40
37456;DHT22;23316;50.718;7.328;2023-04-25T10:21:52;11.00;47.40
37456;DHT22;23316;50.718;7.328;2023-04-25T10:24:19;11.00;47.90
37456;DHT22;23316;50.718;7.328;2023-04-25T10:26:47;10.90;48.00
37456;DHT22;23316;50.718;7.328;2023-04-25T10:29:22;11.00;48.30
37456;DHT22;23316;50.718;7.328;2023-04-25T10:31:49;11.00;48.30
37456;DHT22;23316;50.718;7.328;2023-04-25T10:34:17;11.00;48.60
37456;DHT22;23316;50.718;7.328;2023-04-25T10:36:49;11.00;48.70
37456;DHT22;23316;50.718;7.328;2023-04-25T10:39:22;11.10;48.50
37456;DHT22;23316;50.718;7.328;2023-04-25T10:41:55;11.10;48.20
37456;DHT22;23316;50.718;7.328;2023-04-25T10:44:26;11.10;48.70
37456;DHT22;23316;50.718;7.328;2023-04-25T10:46:55;11.20;48.50
37456;DHT22;23316;50.718;7.328;2023-04-25T10:49:31;11.20;47.70
37456;DHT22;23316;50.718;7.328;2023-04-25T10:52:24;11.30;48.00
37456;DHT22;23316;50.718;7.328;2023-04-25T10:54:53;11.40;49.20
37456;DHT22;23316;50.718;7.328;2023-04-25T10:57:32;11.40;48.70
37456;DHT22;23316;50.718;7.328;2023-04-25T11:00:06;11.50;47.50
37456;DHT22;23316;50.718;7.328;2023-04-25T11:02:42;11.50;47.70
37456;DHT22;23316;50.718;7.328;2023-04-25T11:05:18;11.60;47.90
37456;DHT22;23316;50.718;7.328;2023-04-25T11:07:50;11.60;47.90
37456;DHT22;23316;50.718;7.328;2023-04-25T11:10:18;11.70;48.00
37456;DHT22;23316;50.718;7.328;2023-04-25T11:12:46;11.70;48.20
37456;DHT22;23316;50.718;7.328;2023-04-25T11:15:15;11.70;48.30
37456;DHT22;23316;50.718;7.328;2023-04-25T11:17:42;11.70;47.60
37456;DHT22;23316;50.718;7.328;2023-04-25T11:20:12;11.70;47.60
37456;DHT22;23316;50.718;7.328;2023-04-25T11:22:40;11.70;47.20
37456;DHT22;23316;50.718;7.328;2023-04-25T11:25:10;11.70;47.30
37456;DHT22;23316;50.718;7.328;2023-04-25T11:27:38;11.70;47.10
37456;DHT22;23316;50.718;7.328;2023-04-25T11:30:15;11.70;47.20
37456;DHT22;23316;50.718;7.328;2023-04-25T11:32:42;11.70;47.50
37456;DHT22;23316;50.718;7.328;2023-04-25T11:35:10;11.70;47.70
37456;DHT22;23316;50.718;7.328;2023-04-25T11:37:41;11.80;48.00
37456;DHT22;23316;50.718;7.328;2023-04-25T11:40:12;11.80;47.50
37456;DHT22;23316;50.718;7.328;2023-04-25T11:42:43;11.80;47.80
37456;DHT22;23316;50.718;7.328;2023-04-25T11:45:13;11.80;47.40
37456;DHT22;23316;50.718;7.328;2023-04-25T11:47:41;11.90;47.50
37456;DHT22;23316;50.718;7.328;2023-04-25T11:50:10;11.90;47.90
37456;DHT22;23316;50.718;7.328;2023-04-25T11:52:41;12.00;48.00
37456;DHT22;23316;50.718;7.328;2023-04-25T11:55:10;12.00;46.30
37456;DHT22;23316;50.718;7.328;2023-04-25T11:57:40;12.00;45.80
37456;DHT22;23316;50.718;7.328;2023-04-25T12:00:10;12.10;46.80
37456;DHT22;23316;50.718;7.328;2023-04-25T12:02:42;12.20;45.80
37456;DHT22;23316;50.718;7.328;2023-04-25T12:05:10;12.20;46.20
37456;DHT22;23316;50.718;7.328;2023-04-25T12:07:38;12.20;45.50
37456;DHT22;23316;50.718;7.328;2023-04-25T12:10:14;12.20;45.80
37456;DHT22;23316;50.718;7.328;2023-04-25T12:12:42;12.20;45.90
37456;DHT22;23316;50.718;7.328;2023-04-25T12:15:12;12.20;46.20
37456;DHT22;23316;50.718;7.328;2023-04-25T12:17:44;12.20;46.10
37456;DHT22;23316;50.718;7.328;2023-04-25T12:20:13;12.20;45.60
37456;DHT22;23316;50.718;7.328;2023-04-25T12:22:41;12.20;45.60
37456;DHT22;23316;50.718;7.328;2023-04-25T12:25:11;12.20;45.40
37456;DHT22;23316;50.718;7.328;2023-04-25T12:27:40;12.30;45.20
37456;DHT22;23316;50.718;7.328;2023-04-25T12:30:10;12.20;45.70
37456;DHT22;23316;50.718;7.328;2023-04-25T12:32:37;12.30;46.00
37456;DHT22;23316;50.718;7.328;2023-04-25T12:35:07;12.20;46.00
37456;DHT22;23316;50.718;7.328;2023-04-25T12:37:35;12.30;45.40
37456;DHT22;23316;50.718;7.328;2023-04-25T12:40:02;12.20;44.30
37456;DHT22;23316;50.718;7.328;2023-04-25T12:42:30;12.20;45.00
37456;DHT22;23316;50.718;7.328;2023-04-25T12:44:58;12.20;45.20
37456;DHT22;23316;50.718;7.328;2023-04-25T12:47:25;12.30;45.10
37456;DHT22;23316;50.718;7.328;2023-04-25T12:49:52;12.20;44.90
37456;DHT22;23316;50.718;7.328;2023-04-25T12:52:21;12.20;44.30
37456;DHT22;23316;50.718;7.328;2023-04-25T12:54:48;12.30;44.90
37456;DHT22;23316;50.718;7.328;2023-04-25T12:57:15;12.30;45.10
37456;DHT22;23316;50.718;7.328;2023-04-25T12:59:43;12.30;45.10
37456;DHT22;23316;50.718;7.328;2023-04-25T13:02:12;12.40;45.20
37456;DHT22;23316;50.718;7.328;2023-04-25T13:04:39;12.40;45.00
37456;DHT22;23316;50.718;7.328;2023-04-25T13:07:07;12.40;45.30
37456;DHT22;23316;50.718;7.328;2023-04-25T13:09:35;12.50;45.60
37456;DHT22;23316;50.718;7.328;2023-04-25T13:12:03;12.60;45.80
37456;DHT22;23316;50.718;7.328;2023-04-25T13:14:30;12.60;45.90
37456;DHT22;23316;50.718;7.328;2023-04-25T13:16:59;12.70;45.20
37456;DHT22;23316;50.718;7.328;2023-04-25T13:19:27;12.80;45.10
37456;DHT22;23316;50.718;7.328;2023-04-25T13:21:54;12.90;43.40
37456;DHT22;23316;50.718;7.328;2023-04-25T13:24:21;12.90;42.60
37456;DHT22;23316;50.718;7.328;2023-04-25T13:26:50;13.00;43.50
37456;DHT22;23316;50.718;7.328;2023-04-25T13:29:17;13.10;43.70
37456;DHT22;23316;50.718;7.328;2023-04-25T13:31:44;13.20;43.40
37456;DHT22;23316;50.718;7.328;2023-04-25T13:34:14;13.20;43.40
37456;DHT22;23316;50.718;7.328;2023-04-25T13:36:42;13.30;43.40
37456;DHT22;23316;50.718;7.328;2023-04-25T13:39:09;13.30;42.70
37456;DHT22;23316;50.718;7.328;2023-04-25T13:41:37;13.30;42.10
37456;DHT22;23316;50.718;7.328;2023-04-25T13:44:05;13.30;40.70
37456;DHT22;23316;50.718;7.328;2023-04-25T13:46:35;13.30;41.10
37456;DHT22;23316;50.718;7.328;2023-04-25T13:49:03;13.20;40.30
37456;DHT22;23316;50.718;7.328;2023-04-25T13:51:30;13.10;39.50
37456;DHT22;23316;50.718;7.328;2023-04-25T13:53:57;12.90;38.10
37456;DHT22;23316;50.718;7.328;2023-04-25T13:56:25;12.90;39.60
37456;DHT22;23316;50.718;7.328;2023-04-25T13:58:52;12.80;38.30
37456;DHT22;23316;50.718;7.328;2023-04-25T14:01:21;12.80;39.80
37456;DHT22;23316;50.718;7.328;2023-04-25T14:03:48;12.80;40.60
37456;DHT22;23316;50.718;7.328;2023-04-25T14:06:15;12.70;39.90
37456;DHT22;23316;50.718;7.328;2023-04-25T14:08:48;12.70;40.00
37456;DHT22;23316;50.718;7.328;2023-04-25T14:11:16;12.70;39.50
37456;DHT22;23316;50.718;7.328;2023-04-25T14:13:44;12.60;39.70
37456;DHT22;23316;50.718;7.328;2023-04-25T14:16:11;12.60;39.90
37456;DHT22;23316;50.718;7.328;2023-04-25T14:18:40;12.60;40.30
37456;DHT22;23316;50.718;7.328;2023-04-25T14:21:08;12.60;40.20
37456;DHT22;23316;50.718;7.328;2023-04-25T14:23:37;12.60;40.50
37456;DHT22;23316;50.718;7.328;2023-04-25T14:26:04;12.60;40.60
37456;DHT22;23316;50.718;7.328;2023-04-25T14:28:31;12.60;40.70
37456;DHT22;23316;50.718;7.328;2023-04-25T14:30:58;12.50;40.70
37456;DHT22;23316;50.718;7.328;2023-04-25T14:33:26;12.50;41.00
37456;DHT22;23316;50.718;7.328;2023-04-25T14:35:55;12.60;41.20
37456;DHT22;23316;50.718;7.328;2023-04-25T14:38:22;12.60;41.40
37456;DHT22;23316;50.718;7.328;2023-04-25T14:40:51;12.60;41.30
37456;DHT22;23316;50.718;7.328;2023-04-25T14:43:19;12.60;40.90
37456;DHT22;23316;50.718;7.328;2023-04-25T14:45:47;12.60;41.50
37456;DHT22;23316;50.718;7.328;2023-04-25T14:48:17;12.70;41.70
37456;DHT22;23316;50.718;7.328;2023-04-25T14:50:45;12.70;41.60
37456;DHT22;23316;50.718;7.328;2023-04-25T14:53:16;12.80;41.60
37456;DHT22;23316;50.718;7.328;2023-04-25T14:55:43;12.90;40.80
37456;DHT22;23316;50.718;7.328;2023-04-25T14:58:13;13.00;41.20
37456;DHT22;23316;50.718;7.328;2023-04-25T15:00:41;13.00;41.00
37456;DHT22;23316;50.718;7.328;2023-04-25T15:03:09;13.10;41.20
37456;DHT22;23316;50.718;7.328;2023-04-25T15:05:39;13.10;40.70
37456;DHT22;23316;50.718;7.328;2023-04-25T15:08:06;13.20;41.40
37456;DHT22;23316;50.718;7.328;2023-04-25T15:10:36;13.30;41.70
37456;DHT22;23316;50.718;7.328;2023-04-25T15:13:03;13.40;41.80
37456;DHT22;23316;50.718;7.328;2023-04-25T15:15:33;13.40;41.20
37456;DHT22;23316;50.718;7.328;2023-04-25T15:18:00;13.50;41.00
37456;DHT22;23316;50.718;7.328;2023-04-25T15:20:28;13.60;39.20
37456;DHT22;23316;50.718;7.328;2023-04-25T15:22:55;13.60;40.10
37456;DHT22;23316;50.718;7.328;2023-04-25T15:25:23;13.70;40.30
37456;DHT22;23316;50.718;7.328;2023-04-25T15:27:52;13.70;39.20
37456;DHT22;23316;50.718;7.328;2023-04-25T15:30:20;13.80;39.60
37456;DHT22;23316;50.718;7.328;2023-04-25T15:32:48;13.80;38.00
37456;DHT22;23316;50.718;7.328;2023-04-25T15:35:15;13.70;38.20
37456;DHT22;23316;50.718;7.328;2023-04-25T15:37:42;13.70;38.80
37456;DHT22;23316;50.718;7.328;2023-04-25T15:40:13;13.70;39.00
37456;DHT22;23316;50.718;7.328;2023-04-25T15:42:45;13.70;39.30
37456;DHT22;23316;50.718;7.328;2023-04-25T15:45:15;13.70;38.40
37456;DHT22;23316;50.718;7.328;2023-04-25T15:47:43;13.60;38.40
37456;DHT22;23316;50.718;7.328;2023-04-25T15:50:11;13.50;39.30
37456;DHT22;23316;50.718;7.328;2023-04-25T15:52:38;13.40;39.40
37456;DHT22;23316;50.718;7.328;2023-04-25T15:55:06;13.40;40.20
37456;DHT22;23316;50.718;7.328;2023-04-25T15:57:34;13.30;40.00
37456;DHT22;23316;50.718;7.328;2023-04-25T16:00:03;13.20;39.80
37456;DHT22;23316;50.718;7.328;2023-04-25T16:02:38;13.20;40.20
37456;DHT22;23316;50.718;7.328;2023-04-25T16:05:06;13.10;39.90
37456;DHT22;23316;50.718;7.328;2023-04-25T16:07:34;13.10;39.40
37456;DHT22;23316;50.718;7.328;2023-04-25T16:10:02;13.10;37.80
37456;DHT22;23316;50.718;7.328;2023-04-25T16:12:29;13.00;37.40
37456;DHT22;23316;50.718;7.328;2023-04-25T16:14:57;12.90;37.40
37456;DHT22;23316;50.718;7.328;2023-04-25T16:17:24;12.90;36.50
37456;DHT22;23316;50.718;7.328;2023-04-25T16:19:54;12.90;37.20
37456;DHT22;23316;50.718;7.328;2023-04-25T16:22:22;12.90;37.60
37456;DHT22;23316;50.718;7.328;2023-04-25T16:24:49;12.80;36.30
37456;DHT22;23316;50.718;7.328;2023-04-25T16:27:16;12.80;37.70
37456;DHT22;23316;50.718;7.328;2023-04-25T16:29:44;12.70;37.00
37456;DHT22;23316;50.718;7.328;2023-04-25T16:32:14;12.70;37.40
37456;DHT22;23316;50.718;7.328;2023-04-25T16:34:41;12.70;37.90